Terminal Aerodrome Forecast
Issued by NWS Upton, NY

Home | Current Version | Previous Version | Text Only | Print | Product List | Glossary On
Versions: 1 2 3 4 5 6 7 8 9 10 11 12 13 14 15 16 17 18 19 20 21 22 23 24 25 26 27 28 29
483
FTUS41 KOKX 261342 AAA
TAFBDR
TAF AMD
KBDR 261342Z 2614/2712 03013KT 4SM -RA BR SCT007 OVC010
     FM262000 04007KT 6SM BR OVC012
     FM262300 02004KT 3SM BR OVC005
     FM270100 VRB03KT 3/4SM BR OVC003=

USA.gov is the U.S. government's official web portal to all federal, state and local government web resources and services.